Main page
METAR-TAF:

METAR-TAF

Airports :

Martinique Aimé Césaire International Airport

Fort-de-France, Martinique

latitude: 14-36N, longitude: 061-00W, elevation: 5 m

Current weather observation

The report was made 14 minutes ago, at 08:00 UTC
Wind 9 kt from the East/Southeast
Temperature 25°C
Humidity 69%
Pressure 1013 hPa
Visibility 10 km or more
Few clouds at a height of 4900 ft

METAR: TFFF 200800Z AUTO 11009KT 9999 FEW049 25/19 Q1013 TEMPO 4000 SHRA BKN018TCU

Time: 04:14 (08:14 UTC)

Forecast

The report was made 4 hours and 14 minutes ago, at 04:00 UTC
Forecast valid from 20 at 06 UTC to 21 at 06 UTC
Wind 12 kt from the East
Visibility 10 km or more
Scattered clouds at a height of 2600 ft
Broken clouds at a height of 6000 ft
Temporary
from 20 at 09 UTC to 20 at 14 UTC
Visibility: 4000 m
Broken clouds at a height of 1800 ft, Towering cumulus.
rain showers

TAF: TFFF 200400Z 2006/2106 10012KT 9999 SCT026 BKN060 TEMPO 2009/2014 4000 SHRA BKN018TCU

Weather observations and forecasts of more than 4000 airports (METAR and TAF reports).

The available stations are represented by yellow and red dots on the map.

Hover mouse over dot to see the name of the station.

Then click to see weather observations and forecasts.

To change the map : click on the green buttons with a black cross to zoom in, on the green button with a dash to zoom out, or on the green arrows for adjacent maps.


METAR-TAF: